首页
METAR-TAF:

METAR-TAF

机场 :

阿比林, 得克萨斯州, 美国

纬度: 32-24-37N, 经度: 099-40-54W, 海拔: 545米

当前天气观测

该预报发布于1小时和16分钟前的03:52 UTC
风速17节,风向东南
温度 28°C
湿度 62%
气压 1010 hPa
能見度: 16.1公里
天空无云

METAR: KABI 170352Z 13017KT 10SM CLR 28/20 A2983 RMK AO2 SLP071 T02830200 $

时间: 00:08 (05:08 UTC)

预报

该预报发布于5小时和48分钟前的23:20 UTC
预报有效从17日的 00点(UTC)到 17日的 24点(UTC)
风速11节,风向东南,有时为21节阵风
能見度: 10公里
少量云层高于25000英尺
从 17日的 0600点(UTC)
风速15节,风向南转南东,有时为27节阵风
能見度: 10公里
散云层高于25000英尺
从 17日的 1600点(UTC)
风速17节,风向南转南东,有时为25节阵风
能見度: 10公里
少量云层高于25000英尺

TAF: KABI 162320Z 1700/1724 14011G21KT P6SM FEW250 FM170600 16015G27KT P6SM SCT250 FM171600 16017G25KT P6SM FEW250

超过4000个机场的气象观测和天气预报(METAR&TAF报告)。

可查询的气象台以黄色和红色小点在地图上表示。

将鼠标移到小点上方,可查看气象台名称。

然后点击查看天气观测和预报。

如需切换地图:点击带黑十字的绿色按钮放大地图;点击带横线的绿色按钮缩小地图;或者点击绿色箭头查看邻近地区的地图。


METAR-TAF: